Terminal Aerodrome Forecast
Issued by NWS Austin/San Antonio, TX

Home | Current Version | Previous Version | Text Only | Print | Product List | Glossary On
Versions: 1 2 3 4 5 6 7 8 9 10 11 12 13 14 15
000
FTUS44 KEWX 011100
TAFDRT
TAF
KDRT 011120Z 0112/0212 12010KT P6SM SKC
      TEMPO 0112/0116 BKN018
     FM011700 14011G17KT P6SM FEW040
     FM020200 13008KT P6SM SKC=

USA.gov is the U.S. government's official web portal to all federal, state and local government web resources and services.